createdAt,value
2022-10-31T00:00:50.557Z,74.04
2022-10-31T00:03:34.134Z,74.59
2022-10-31T00:06:20.948Z,73.64
2022-10-31T00:09:05.902Z,73.99
2022-10-31T00:11:49.450Z,74.54
2022-10-31T00:14:33.006Z,73.84
2022-10-31T00:17:16.816Z,75.21
2022-10-31T00:20:00.285Z,74.64
2022-10-31T00:22:43.829Z,74.90
2022-10-31T00:25:28.705Z,74.67
2022-10-31T00:28:13.242Z,75.64
2022-10-31T00:31:01.171Z,74.81
2022-10-31T00:33:44.724Z,73.71
2022-10-31T00:36:28.262Z,74.39
2022-10-31T00:39:11.793Z,74.75
2022-10-31T00:41:55.360Z,75.90
2022-10-31T00:44:38.922Z,74.85
2022-10-31T00:47:22.396Z,75.09
2022-10-31T00:50:07.218Z,75.54
2022-10-31T00:52:50.793Z,74.97
2022-10-31T00:55:34.892Z,75.61
2022-10-31T00:58:18.485Z,76.00
2022-10-31T01:01:02.350Z,75.42
2022-10-31T01:03:45.974Z,76.40
2022-10-31T01:06:30.166Z,76.18
2022-10-31T01:09:14.515Z,76.37
2022-10-31T01:11:58.155Z,75.05
2022-10-31T01:14:46.396Z,75.37
2022-10-31T01:17:30.103Z,75.09
2022-10-31T01:20:16.018Z,75.45
2022-10-31T01:22:59.479Z,75.85
2022-10-31T01:25:43.639Z,75.80
2022-10-31T01:28:27.147Z,76.56
2022-10-31T01:31:11.053Z,76.04
2022-10-31T01:33:56.562Z,75.94
2022-10-31T01:36:40.692Z,77.08
2022-10-31T01:39:24.623Z,76.75
2022-10-31T01:42:08.183Z,75.22
2022-10-31T01:45:00.257Z,77.60
2022-10-31T01:47:48.771Z,75.94
2022-10-31T01:50:39.313Z,75.74
2022-10-31T01:53:26.927Z,76.60
2022-10-31T01:56:11.450Z,77.14
2022-10-31T01:59:00.876Z,78.40
2022-10-31T02:01:44.495Z,78.61
2022-10-31T02:04:30.385Z,77.34
2022-10-31T02:07:26.413Z,77.40
2022-10-31T02:10:10.161Z,78.86
2022-10-31T02:13:00.464Z,77.83
2022-10-31T02:15:48.635Z,79.35
2022-10-31T02:18:32.370Z,80.50
2022-10-31T02:21:41.319Z,78.77
2022-10-31T02:24:43.691Z,79.80
2022-10-31T02:27:56.750Z,81.65
2022-10-31T02:30:46.163Z,83.34
2022-10-31T02:34:13.013Z,82.56
2022-10-31T02:37:14.200Z,81.87
2022-10-31T02:40:32.667Z,83.30
2022-10-31T02:43:46.753Z,80.29
2022-10-31T02:46:48.983Z,79.11
2022-10-31T02:49:45.420Z,78.44
2022-10-31T02:52:33.146Z,78.63
2022-10-31T02:55:25.385Z,78.98
2022-10-31T03:02:10.135Z,79.58
2022-10-31T03:05:34.738Z,82.09
2022-10-31T03:08:33.309Z,83.96
2022-10-31T03:11:25.279Z,84.64
2022-10-31T03:14:27.853Z,83.51
2022-10-31T03:17:40.417Z,87.19
2022-10-31T03:20:36.666Z,85.69
2022-10-31T03:23:24.097Z,87.38
2022-10-31T03:26:11.807Z,85.57
2022-10-31T03:33:05.733Z,88.02
2022-10-31T03:35:56.163Z,90.91
2022-10-31T03:38:42.441Z,89.10
2022-10-31T03:41:34.075Z,87.90
2022-10-31T03:44:23.060Z,86.89
2022-10-31T03:47:14.582Z,89.19
2022-10-31T03:49:59.080Z,90.90
2022-10-31T03:53:05.302Z,90.48
2022-10-31T03:56:06.181Z,89.46
2022-10-31T03:59:10.040Z,88.51
2022-10-31T04:02:07.140Z,87.98
2022-10-31T04:04:52.987Z,88.53
2022-10-31T04:07:44.414Z,88.96
2022-10-31T04:10:33.150Z,87.93
2022-10-31T04:13:25.457Z,87.99
2022-10-31T04:16:19.082Z,86.31
2022-10-31T04:19:02.499Z,85.91
2022-10-31T04:21:45.892Z,86.23
2022-10-31T04:24:29.330Z,85.51
2022-10-31T04:27:12.746Z,85.66
2022-10-31T04:29:56.188Z,88.29
2022-10-31T04:32:39.596Z,86.90
2022-10-31T04:35:23.889Z,86.94
2022-10-31T04:38:08.491Z,86.91
2022-10-31T04:40:51.967Z,86.86
2022-10-31T04:44:01.551Z,86.00
2022-10-31T04:46:45.005Z,86.05
2022-10-31T04:49:28.456Z,85.03
2022-10-31T04:52:11.873Z,86.01
2022-10-31T04:54:55.371Z,86.05
2022-10-31T04:58:02.206Z,86.75
2022-10-31T05:00:46.109Z,87.53
2022-10-31T05:03:29.674Z,86.53
2022-10-31T05:06:13.189Z,86.42
2022-10-31T05:08:58.809Z,84.93
2022-10-31T05:11:42.207Z,84.50
2022-10-31T05:14:54.484Z,85.00
2022-10-31T05:17:57.780Z,84.84
2022-10-31T05:21:00.124Z,84.23
2022-10-31T05:23:51.980Z,83.64
2022-10-31T05:26:36.657Z,84.33
2022-10-31T05:29:20.043Z,85.55
2022-10-31T05:32:03.694Z,84.46
2022-10-31T05:35:33.656Z,84.69
2022-10-31T05:38:31.202Z,84.94
2022-10-31T05:41:21.840Z,84.25
2022-10-31T05:44:05.718Z,83.84
2022-10-31T05:46:55.876Z,83.39
2022-10-31T05:49:51.420Z,82.62
2022-10-31T05:53:06.246Z,83.54
2022-10-31T05:55:54.607Z,83.38
2022-10-31T05:58:39.351Z,84.08
2022-10-31T06:01:23.618Z,82.77
2022-10-31T06:04:07.079Z,82.53
2022-10-31T06:06:52.207Z,81.86
2022-10-31T06:09:35.585Z,83.17
2022-10-31T06:12:19.154Z,84.30
2022-10-31T06:15:24.327Z,82.58
2022-10-31T06:18:09.809Z,81.86
2022-10-31T06:21:02.643Z,81.35
2022-10-31T06:23:46.137Z,80.90
2022-10-31T06:26:52.763Z,80.49
2022-10-31T06:29:36.109Z,81.96
2022-10-31T06:32:22.584Z,82.58
2022-10-31T06:35:06.542Z,80.92
2022-10-31T06:37:55.466Z,80.77
2022-10-31T06:40:47.418Z,79.63
2022-10-31T06:43:38.802Z,79.50
2022-10-31T06:46:39.494Z,80.38
2022-10-31T06:49:51.498Z,81.18
2022-10-31T06:52:38.977Z,80.63
2022-10-31T06:55:23.731Z,82.09
2022-10-31T06:58:07.734Z,82.94
2022-10-31T07:00:51.561Z,81.82
2022-10-31T07:03:35.212Z,83.26
2022-10-31T07:06:18.922Z,80.92
2022-10-31T07:09:03.970Z,80.39
2022-10-31T07:11:48.238Z,80.67
2022-10-31T07:14:32.054Z,80.26
2022-10-31T07:17:15.458Z,79.19
2022-10-31T07:20:00.887Z,78.86
2022-10-31T07:22:49.618Z,83.88
2022-10-31T07:25:34.159Z,84.35
2022-10-31T07:28:17.641Z,85.03
2022-10-31T07:31:03.845Z,83.36
2022-10-31T07:33:47.473Z,84.73
2022-10-31T07:36:56.944Z,85.37
2022-10-31T07:39:40.347Z,83.73
2022-10-31T07:42:24.363Z,85.77
2022-10-31T07:45:12.824Z,87.96
2022-10-31T07:48:28.140Z,85.53
2022-10-31T07:51:30.566Z,87.43
2022-10-31T07:54:32.235Z,86.95
2022-10-31T07:57:16.079Z,88.07
2022-10-31T08:00:00.629Z,88.42
2022-10-31T08:02:44.163Z,88.58
2022-10-31T08:05:58.275Z,90.91
2022-10-31T08:09:00.948Z,92.93
2022-10-31T08:11:44.637Z,91.49
2022-10-31T08:14:28.822Z,92.44
2022-10-31T08:17:13.474Z,92.35
2022-10-31T08:20:10.056Z,92.65
2022-10-31T08:23:06.187Z,92.70
2022-10-31T08:25:52.118Z,90.82
2022-10-31T08:28:35.758Z,90.22
2022-10-31T08:31:20.489Z,90.90
2022-10-31T08:34:04.210Z,89.32
2022-10-31T08:37:06.475Z,88.99
2022-10-31T08:39:56.856Z,89.84
2022-10-31T08:42:41.244Z,89.16
2022-10-31T08:45:25.760Z,89.52
2022-10-31T08:48:16.003Z,89.89
2022-10-31T08:51:01.048Z,89.92
2022-10-31T08:53:47.563Z,89.67
2022-10-31T08:56:37.103Z,90.35
2022-10-31T08:59:28.971Z,90.67
2022-10-31T09:02:30.677Z,90.55
2022-10-31T09:05:16.755Z,90.39
2022-10-31T09:08:03.056Z,89.34
2022-10-31T09:10:47.679Z,89.47
2022-10-31T09:13:40.204Z,89.43
2022-10-31T09:16:45.083Z,88.02
2022-10-31T09:19:38.437Z,87.59
2022-10-31T09:22:23.853Z,86.75
2022-10-31T09:25:07.984Z,88.92
2022-10-31T09:27:51.780Z,88.38
2022-10-31T09:30:37.295Z,85.96
2022-10-31T09:33:21.564Z,85.13
2022-10-31T09:36:18.409Z,85.53
2022-10-31T09:39:02.279Z,85.63
2022-10-31T09:42:06.105Z,84.15
2022-10-31T09:45:12.037Z,83.83
2022-10-31T09:48:28.873Z,87.38
2022-10-31T09:51:51.930Z,86.08
2022-10-31T09:54:55.750Z,85.01
2022-10-31T09:57:43.425Z,85.63
2022-10-31T10:00:27.625Z,86.73
2022-10-31T10:03:47.163Z,82.49
2022-10-31T10:06:53.865Z,84.57
2022-10-31T10:10:31.076Z,83.30
2022-10-31T10:14:09.936Z,83.29
2022-10-31T10:17:42.065Z,83.37
2022-10-31T10:20:59.394Z,83.39
2022-10-31T10:23:58.753Z,83.44
2022-10-31T10:27:20.671Z,84.70
2022-10-31T10:30:24.337Z,85.67
2022-10-31T10:33:23.617Z,84.13
2022-10-31T10:37:17.527Z,82.90
2022-10-31T10:40:12.730Z,81.55
2022-10-31T10:43:25.471Z,78.53
2022-10-31T10:46:30.532Z,80.04
2022-10-31T10:49:25.066Z,80.50
2022-10-31T10:52:27.126Z,79.18
2022-10-31T10:55:48.472Z,78.43
2022-10-31T10:58:32.485Z,77.60
2022-10-31T11:01:17.000Z,76.17
2022-10-31T11:04:04.380Z,76.13
2022-10-31T11:07:09.681Z,79.29
2022-10-31T11:10:06.721Z,79.76
2022-10-31T11:13:24.523Z,79.95
2022-10-31T11:16:27.419Z,77.49
2022-10-31T11:19:17.876Z,78.31
2022-10-31T11:22:16.212Z,76.57
2022-10-31T11:24:59.884Z,77.23
2022-10-31T11:27:43.526Z,76.51
2022-10-31T11:30:27.088Z,74.79
2022-10-31T11:33:36.790Z,73.91
2022-10-31T11:36:27.239Z,72.76
2022-10-31T11:39:24.722Z,75.45
2022-10-31T11:42:09.172Z,73.22
2022-10-31T11:44:56.094Z,72.82
2022-10-31T11:47:47.449Z,74.23
2022-10-31T11:50:42.721Z,73.85
2022-10-31T11:53:34.830Z,74.48
2022-10-31T11:56:18.262Z,76.78
2022-10-31T11:59:16.596Z,74.01
2022-10-31T12:02:02.662Z,72.66
2022-10-31T12:05:07.661Z,71.45
2022-10-31T12:07:51.610Z,73.11
2022-10-31T12:11:16.012Z,71.40
2022-10-31T12:14:33.721Z,71.09
2022-10-31T12:17:37.388Z,74.56
2022-10-31T12:21:20.352Z,72.58
2022-10-31T12:25:13.901Z,71.58
2022-10-31T12:28:32.531Z,72.31
2022-10-31T12:31:43.633Z,70.60
2022-10-31T12:35:06.839Z,72.27
2022-10-31T12:38:30.139Z,72.77
2022-10-31T12:41:47.177Z,71.85
2022-10-31T12:44:59.651Z,70.69
2022-10-31T12:48:30.641Z,71.07
2022-10-31T12:51:35.798Z,69.92
2022-10-31T12:54:51.124Z,68.95
2022-10-31T12:57:46.439Z,69.74
2022-10-31T13:00:35.300Z,70.28
2022-10-31T13:03:53.689Z,69.00
2022-10-31T13:06:50.043Z,68.21
2022-10-31T13:10:10.196Z,71.31
2022-10-31T13:13:04.214Z,70.89
2022-10-31T13:15:58.421Z,69.02
2022-10-31T13:18:56.887Z,69.39
2022-10-31T13:21:52.810Z,69.58
2022-10-31T13:25:10.191Z,68.83
2022-10-31T13:28:29.864Z,68.07
2022-10-31T13:31:13.681Z,66.31
2022-10-31T13:34:12.279Z,65.54
2022-10-31T13:37:20.480Z,66.73
2022-10-31T13:40:36.525Z,70.44
2022-10-31T13:43:51.578Z,70.07
2022-10-31T13:46:34.951Z,70.30
2022-10-31T13:49:30.541Z,71.98
2022-10-31T13:52:24.056Z,71.21
2022-10-31T13:55:48.126Z,70.28
2022-10-31T13:58:33.197Z,70.47
2022-10-31T14:01:24.134Z,68.78
2022-10-31T14:04:25.160Z,67.83
2022-10-31T14:07:13.634Z,67.73
2022-10-31T14:10:26.774Z,67.61
2022-10-31T14:13:26.287Z,68.28
2022-10-31T14:16:31.190Z,68.23
2022-10-31T14:19:20.869Z,67.75
2022-10-31T14:22:04.271Z,67.83
2022-10-31T14:24:47.965Z,68.09
2022-10-31T14:27:44.653Z,68.26
2022-10-31T14:30:31.293Z,67.92
2022-10-31T14:33:21.207Z,67.91
2022-10-31T14:36:17.433Z,68.57
2022-10-31T14:39:18.289Z,68.52
2022-10-31T14:42:42.958Z,68.12
2022-10-31T14:46:03.089Z,69.85
2022-10-31T14:49:32.621Z,69.24
2022-10-31T14:52:20.177Z,69.35
2022-10-31T14:55:14.211Z,67.73
2022-10-31T14:58:05.653Z,68.06
2022-10-31T15:00:55.179Z,67.88
2022-10-31T15:04:10.221Z,69.70
2022-10-31T15:07:13.332Z,69.86
2022-10-31T15:10:22.540Z,70.72
2022-10-31T15:13:22.519Z,70.36
2022-10-31T15:16:12.846Z,69.93
2022-10-31T15:19:03.791Z,69.32
2022-10-31T15:21:47.465Z,70.26
2022-10-31T15:24:39.867Z,69.80
2022-10-31T15:27:25.108Z,70.04
2022-10-31T15:30:26.523Z,69.78
2022-10-31T15:33:45.280Z,70.64
2022-10-31T15:36:35.694Z,70.06
2022-10-31T15:39:21.203Z,70.01
2022-10-31T15:42:05.048Z,69.78
2022-10-31T15:45:10.329Z,71.30
2022-10-31T15:48:22.627Z,69.72
2022-10-31T15:51:06.248Z,71.07
2022-10-31T15:53:53.524Z,70.55
2022-10-31T15:56:37.028Z,70.88
2022-10-31T15:59:30.047Z,70.46
2022-10-31T16:02:18.920Z,70.58
2022-10-31T16:05:03.408Z,70.61
2022-10-31T16:07:52.584Z,70.92
2022-10-31T16:10:36.443Z,70.84
2022-10-31T16:13:30.136Z,72.29
2022-10-31T17:08:34.127Z,72.60
2022-10-31T17:11:25.590Z,72.36
2022-10-31T17:14:10.291Z,72.47
2022-10-31T17:16:53.722Z,72.27
2022-10-31T17:19:37.235Z,72.87
2022-10-31T17:22:20.654Z,72.32
2022-10-31T17:25:04.291Z,73.20
2022-10-31T17:27:48.589Z,73.08
2022-10-31T17:30:33.571Z,73.84
2022-10-31T17:33:18.125Z,73.45
2022-10-31T17:36:04.309Z,74.78
2022-10-31T17:38:47.734Z,75.46
2022-10-31T17:41:31.307Z,75.19
2022-10-31T17:44:14.751Z,73.44
2022-10-31T17:46:58.200Z,73.50
2022-10-31T17:49:42.060Z,73.13
2022-10-31T17:52:25.580Z,73.48
2022-10-31T17:55:09.951Z,74.49
2022-10-31T17:57:53.458Z,76.63
2022-10-31T18:00:38.177Z,74.66
2022-10-31T18:03:21.554Z,73.51
2022-10-31T18:06:05.771Z,74.37
2022-10-31T18:08:49.205Z,72.91
2022-10-31T18:11:33.282Z,72.44
2022-10-31T18:14:16.677Z,72.49
2022-10-31T18:17:00.404Z,72.13
2022-10-31T18:19:44.013Z,72.00
2022-10-31T18:22:27.587Z,73.61
2022-10-31T18:25:11.081Z,72.30
2022-10-31T18:27:54.686Z,72.26
2022-10-31T18:30:41.772Z,73.18
2022-10-31T18:33:25.151Z,72.25
2022-10-31T18:36:10.115Z,72.06
2022-10-31T18:38:53.634Z,74.79
2022-10-31T18:41:38.651Z,74.79
2022-10-31T18:44:22.170Z,73.79
2022-10-31T18:47:05.686Z,72.95
2022-10-31T18:49:49.063Z,72.54
2022-10-31T18:52:32.791Z,72.82
2022-10-31T18:55:16.426Z,72.55
2022-10-31T18:58:02.748Z,72.21
2022-10-31T19:00:47.365Z,72.13
2022-10-31T19:03:31.019Z,72.31
2022-10-31T19:06:14.454Z,72.11
2022-10-31T19:09:02.671Z,72.27
2022-10-31T19:11:46.376Z,72.32
2022-10-31T19:14:30.035Z,72.29
2022-10-31T19:17:13.697Z,72.01
2022-10-31T19:19:57.193Z,72.26
2022-10-31T19:22:40.643Z,72.70
2022-10-31T19:25:24.066Z,72.83
2022-10-31T19:28:07.782Z,72.47
2022-10-31T19:30:55.303Z,72.51
2022-10-31T19:33:39.670Z,72.06
2022-10-31T19:36:24.093Z,72.26
2022-10-31T19:39:07.658Z,72.19
2022-10-31T19:41:51.303Z,72.45
2022-10-31T19:44:34.826Z,72.15
2022-10-31T19:47:18.439Z,73.72
2022-10-31T19:50:04.873Z,73.24
2022-10-31T19:52:48.445Z,73.07
2022-10-31T19:55:31.838Z,74.89
2022-10-31T19:58:15.696Z,75.27
2022-10-31T20:04:02.750Z,73.86
2022-10-31T20:06:46.805Z,73.17
2022-10-31T20:09:30.322Z,72.93
2022-10-31T20:12:13.907Z,73.64
2022-10-31T20:14:57.493Z,73.86
2022-10-31T20:17:41.947Z,74.73
2022-10-31T20:20:25.660Z,74.92
2022-10-31T20:23:09.202Z,74.45
2022-10-31T20:25:52.996Z,73.99
2022-10-31T20:28:41.471Z,74.36
2022-10-31T20:31:31.835Z,74.55
2022-10-31T20:34:15.859Z,75.89
2022-10-31T20:36:59.528Z,75.12
2022-10-31T20:39:43.450Z,75.17
2022-10-31T20:42:27.375Z,75.45
2022-10-31T20:45:11.522Z,75.25
2022-10-31T20:47:56.085Z,74.90
2022-10-31T20:50:39.877Z,74.94
2022-10-31T20:53:23.550Z,75.74
2022-10-31T20:56:15.903Z,75.74
2022-10-31T20:58:59.575Z,74.75
2022-10-31T21:01:43.977Z,75.97
2022-10-31T21:04:27.962Z,76.18
2022-10-31T21:07:11.519Z,75.51
2022-10-31T21:09:55.483Z,75.62
2022-10-31T21:12:39.911Z,75.04
2022-10-31T21:15:23.625Z,74.65
2022-10-31T21:18:07.793Z,74.82
2022-10-31T21:20:51.703Z,74.67
2022-10-31T21:23:35.709Z,76.42
2022-10-31T21:26:22.598Z,76.26
2022-10-31T21:29:09.024Z,75.57
2022-10-31T21:31:52.817Z,76.30
2022-10-31T21:34:36.354Z,76.67
2022-10-31T21:37:20.134Z,80.09
2022-10-31T21:40:03.986Z,79.53
2022-10-31T21:42:47.466Z,78.99
2022-10-31T21:45:31.105Z,78.58
2022-10-31T21:48:14.804Z,77.86
2022-10-31T21:51:06.436Z,79.89
2022-10-31T21:54:09.812Z,78.09
2022-10-31T21:56:55.239Z,77.57
2022-10-31T21:59:41.340Z,77.38
2022-10-31T22:02:24.924Z,78.41
2022-10-31T22:05:09.052Z,83.33
2022-10-31T22:07:53.209Z,81.07
2022-10-31T22:10:36.776Z,79.77
2022-10-31T22:13:20.747Z,81.54
2022-10-31T22:16:11.701Z,79.69
2022-10-31T22:18:59.304Z,79.80
2022-10-31T22:21:48.903Z,79.19
2022-10-31T22:24:32.560Z,78.78
2022-10-31T22:27:16.140Z,78.53
2022-10-31T22:29:59.843Z,78.69
2022-10-31T22:32:43.524Z,77.79
2022-10-31T22:35:27.247Z,77.54
2022-10-31T22:38:10.861Z,76.58
2022-10-31T22:40:59.268Z,77.21
2022-10-31T22:43:43.313Z,77.82
2022-10-31T22:46:31.515Z,77.46
2022-10-31T22:49:15.536Z,78.11
2022-10-31T22:52:04.274Z,76.52
2022-10-31T22:54:56.872Z,77.69
2022-10-31T22:58:09.621Z,77.45
2022-10-31T23:01:10.621Z,77.26
2022-10-31T23:03:56.409Z,78.71
2022-10-31T23:06:41.103Z,80.04
2022-10-31T23:09:25.070Z,80.92
2022-10-31T23:12:26.979Z,82.19
2022-10-31T23:15:10.676Z,83.90
2022-10-31T23:17:54.372Z,86.15
2022-10-31T23:20:38.669Z,87.25
2022-10-31T23:23:22.302Z,88.23
2022-10-31T23:26:25.244Z,86.98
2022-10-31T23:29:09.198Z,87.49
2022-10-31T23:31:54.735Z,86.70
2022-10-31T23:34:38.860Z,87.30
2022-10-31T23:37:26.520Z,86.02
2022-10-31T23:40:10.674Z,86.89
2022-10-31T23:42:54.749Z,86.67
2022-10-31T23:45:38.198Z,85.96
2022-10-31T23:48:21.747Z,86.51
2022-10-31T23:51:05.383Z,86.89
2022-10-31T23:53:48.911Z,88.38
2022-10-31T23:56:32.431Z,88.55
2022-10-31T23:59:15.989Z,89.84
